sensor_id;sensor_type;location;lat;lon;timestamp;pressure;altitude;pressure_sealevel;temperature;humidity
62980;BME280;49075;53.988;27.678;2023-05-25T00:01:43;988.6;;;14.8;51.9
62980;BME280;49075;53.988;27.678;2023-05-25T00:06:37;988.6;;;14.7;52
62980;BME280;49075;53.988;27.678;2023-05-25T00:11:55;988.6;;;14.7;52.3
62980;BME280;49075;53.988;27.678;2023-05-25T00:16:31;988.6;;;14.6;52.5
62980;BME280;49075;53.988;27.678;2023-05-25T00:21:47;988.6;;;14.5;52.7
62980;BME280;49075;53.988;27.678;2023-05-25T00:26:53;988.6;;;14.5;53.4
62980;BME280;49075;53.988;27.678;2023-05-25T00:31:31;988.6;;;14.5;53.4
62980;BME280;49075;53.988;27.678;2023-05-25T00:36:43;988.6;;;14.4;54
62980;BME280;49075;53.988;27.678;2023-05-25T00:41:49;988.6;;;14.3;53.8
62980;BME280;49075;53.988;27.678;2023-05-25T00:46:49;988.7;;;14.3;54.2
62980;BME280;49075;53.988;27.678;2023-05-25T00:51:31;988.6;;;14.2;54.2
62980;BME280;49075;53.988;27.678;2023-05-25T00:56:31;988.6;;;14.1;54.7
62980;BME280;49075;53.988;27.678;2023-05-25T01:01:39;988.5;;;13.9;54.5
62980;BME280;49075;53.988;27.678;2023-05-25T01:06:31;988.5;;;13.8;55
62980;BME280;49075;53.988;27.678;2023-05-25T01:11:51;988.5;;;13.8;54.8
62980;BME280;49075;53.988;27.678;2023-05-25T01:16:55;988.4;;;13.7;55.7
62980;BME280;49075;53.988;27.678;2023-05-25T01:21:59;988.4;;;13.7;55.7
62980;BME280;49075;53.988;27.678;2023-05-25T01:26:45;988.4;;;13.5;56.5
62980;BME280;49075;53.988;27.678;2023-05-25T01:31:51;988.4;;;13.4;56.3
62980;BME280;49075;53.988;27.678;2023-05-25T01:36:53;988.4;;;13.4;56.5
62980;BME280;49075;53.988;27.678;2023-05-25T01:41:43;988.4;;;13.3;56.1
62980;BME280;49075;53.988;27.678;2023-05-25T01:46:35;988.4;;;13.3;56.4
62980;BME280;49075;53.988;27.678;2023-05-25T01:51:46;988.5;;;13.2;56.4
62980;BME280;49075;53.988;27.678;2023-05-25T01:56:45;988.5;;;13;56.6
62980;BME280;49075;53.988;27.678;2023-05-25T02:01:53;988.5;;;12.9;56.9
62980;BME280;49075;53.988;27.678;2023-05-25T02:07:05;988.4;;;12.9;57.2
62980;BME280;49075;53.988;27.678;2023-05-25T02:11:33;988.5;;;12.9;57.4
62980;BME280;49075;53.988;27.678;2023-05-25T02:16:47;988.5;;;12.8;57.7
62980;BME280;49075;53.988;27.678;2023-05-25T02:21:33;988.5;;;12.7;57.7
62980;BME280;49075;53.988;27.678;2023-05-25T02:26:53;988.6;;;12.7;57.6
62980;BME280;49075;53.988;27.678;2023-05-25T02:32:09;988.6;;;12.7;57.8
62980;BME280;49075;53.988;27.678;2023-05-25T02:36:39;988.6;;;12.8;57.7
62980;BME280;49075;53.988;27.678;2023-05-25T02:42:21;988.7;;;12.9;58
62980;BME280;49075;53.988;27.678;2023-05-25T02:47:07;988.7;;;13;57.6
62980;BME280;49075;53.988;27.678;2023-05-25T02:51:41;988.7;;;13.1;57.6
62980;BME280;49075;53.988;27.678;2023-05-25T02:56:33;988.7;;;13.2;57.3
62980;BME280;49075;53.988;27.678;2023-05-25T03:01:33;988.7;;;13.3;57.5
62980;BME280;49075;53.988;27.678;2023-05-25T03:06:47;988.8;;;13.3;57.2
62980;BME280;49075;53.988;27.678;2023-05-25T03:11:33;988.8;;;13.5;57.4
62980;BME280;49075;53.988;27.678;2023-05-25T03:16:51;988.8;;;13.6;57.4
62980;BME280;49075;53.988;27.678;2023-05-25T03:21:57;988.8;;;13.9;57
62980;BME280;49075;53.988;27.678;2023-05-25T03:26:49;988.9;;;14;56.4
62980;BME280;49075;53.988;27.678;2023-05-25T03:31:45;988.9;;;14.2;56.2
62980;BME280;49075;53.988;27.678;2023-05-25T03:36:57;989;;;14.4;55.6
62980;BME280;49075;53.988;27.678;2023-05-25T03:41:39;989;;;14.7;55.4
62980;BME280;49075;53.988;27.678;2023-05-25T03:46:43;989;;;14.9;55
62980;BME280;49075;53.988;27.678;2023-05-25T03:52:07;989;;;15.1;54.7
62980;BME280;49075;53.988;27.678;2023-05-25T03:56:45;989.1;;;15.3;54.2
62980;BME280;49075;53.988;27.678;2023-05-25T04:01:33;989.1;;;15.6;53.7
62980;BME280;49075;53.988;27.678;2023-05-25T04:06:45;989.1;;;15.9;53
62980;BME280;49075;53.988;27.678;2023-05-25T04:11:33;989.1;;;16.1;52.6
62980;BME280;49075;53.988;27.678;2023-05-25T04:16:33;989.1;;;16.3;52.1
62980;BME280;49075;53.988;27.678;2023-05-25T04:21:43;989.1;;;16.4;51.6
62980;BME280;49075;53.988;27.678;2023-05-25T04:26:33;989.1;;;16.6;51.3
62980;BME280;49075;53.988;27.678;2023-05-25T04:31:33;989.1;;;16.8;50.9
62980;BME280;49075;53.988;27.678;2023-05-25T04:36:33;989.1;;;17;50.6
62980;BME280;49075;53.988;27.678;2023-05-25T04:41:34;989.1;;;17.3;50.4
62980;BME280;49075;53.988;27.678;2023-05-25T04:46:33;989.1;;;17.7;49.6
62980;BME280;49075;53.988;27.678;2023-05-25T04:51:33;989.2;;;18.2;48.3
62980;BME280;49075;53.988;27.678;2023-05-25T04:56:33;989.2;;;18.7;47.2
62980;BME280;49075;53.988;27.678;2023-05-25T05:01:33;989.1;;;19.2;46.4
62980;BME280;49075;53.988;27.678;2023-05-25T05:06:33;989.1;;;19.8;45.2
62980;BME280;49075;53.988;27.678;2023-05-25T05:11:33;989.1;;;20.3;44.5
62980;BME280;49075;53.988;27.678;2023-05-25T05:16:33;989.1;;;20.6;43.3
62980;BME280;49075;53.988;27.678;2023-05-25T05:21:51;989.1;;;21;42.8
62980;BME280;49075;53.988;27.678;2023-05-25T05:27:11;989.1;;;21.3;41.8
62980;BME280;49075;53.988;27.678;2023-05-25T05:31:33;989.1;;;21.6;41.2
62980;BME280;49075;53.988;27.678;2023-05-25T05:36:45;989.1;;;22;39.8
62980;BME280;49075;53.988;27.678;2023-05-25T05:42:03;989.1;;;22.5;38.9
62980;BME280;49075;53.988;27.678;2023-05-25T05:46:33;989.1;;;22.9;37.8
62980;BME280;49075;53.988;27.678;2023-05-25T05:51:55;989.1;;;23.3;37.1
62980;BME280;49075;53.988;27.678;2023-05-25T05:56:39;989.1;;;23.7;35.7
62980;BME280;49075;53.988;27.678;2023-05-25T06:02:11;989.1;;;24;35.1
62980;BME280;49075;53.988;27.678;2023-05-25T06:06:33;989.1;;;24.4;32.8
62980;BME280;49075;53.988;27.678;2023-05-25T06:16:57;989.1;;;25.3;31.7
62980;BME280;49075;53.988;27.678;2023-05-25T06:21:45;989.1;;;25.9;31.3
62980;BME280;49075;53.988;27.678;2023-05-25T06:26:45;989.1;;;26.7;29.2
62980;BME280;49075;53.988;27.678;2023-05-25T06:31:55;989;;;27.5;28.7
62980;BME280;49075;53.988;27.678;2023-05-25T06:36:45;989;;;28.2;27.7
62980;BME280;49075;53.988;27.678;2023-05-25T06:41:45;989.1;;;29.1;26.8
62980;BME280;49075;53.988;27.678;2023-05-25T06:46:39;989;;;28.6;26.4
62980;BME280;49075;53.988;27.678;2023-05-25T06:51:57;989;;;29.2;26.1
62980;BME280;49075;53.988;27.678;2023-05-25T06:56:33;989;;;29;24.7
62980;BME280;49075;53.988;27.678;2023-05-25T07:01:49;989;;;29.4;24.8
62980;BME280;49075;53.988;27.678;2023-05-25T07:06:42;989;;;30.3;23.2
62980;BME280;49075;53.988;27.678;2023-05-25T07:11:45;989;;;31.5;22.4
62980;BME280;49075;53.988;27.678;2023-05-25T07:16:45;988.9;;;32;21.2
62980;BME280;49075;53.988;27.678;2023-05-25T07:21:33;988.9;;;33.1;20.4
62980;BME280;49075;53.988;27.678;2023-05-25T07:26:33;989;;;33.3;19.2
62980;BME280;49075;53.988;27.678;2023-05-25T07:31:45;988.9;;;33.2;19.1
62980;BME280;49075;53.988;27.678;2023-05-25T07:36:53;988.9;;;33.9;18.3
62980;BME280;49075;53.988;27.678;2023-05-25T07:41:45;988.9;;;34.6;18.3
62980;BME280;49075;53.988;27.678;2023-05-25T07:46:33;989;;;35.5;16.8
62980;BME280;49075;53.988;27.678;2023-05-25T07:51:33;988.9;;;36;16.1
62980;BME280;49075;53.988;27.678;2023-05-25T07:56:43;988.8;;;36;16.8
62980;BME280;49075;53.988;27.678;2023-05-25T08:01:45;988.8;;;35.6;16.6
62980;BME280;49075;53.988;27.678;2023-05-25T08:06:45;988.8;;;33.4;18.3
62980;BME280;49075;53.988;27.678;2023-05-25T08:11:43;988.8;;;33.1;18
62980;BME280;49075;53.988;27.678;2023-05-25T08:16:33;988.7;;;33.6;17.9
62980;BME280;49075;53.988;27.678;2023-05-25T08:22:03;988.7;;;34.3;17.2
62980;BME280;49075;53.988;27.678;2023-05-25T08:26:33;988.7;;;33;18.1
62980;BME280;49075;53.988;27.678;2023-05-25T08:31:45;988.8;;;31.3;19
62980;BME280;49075;53.988;27.678;2023-05-25T08:36:47;988.8;;;30;20.4
62980;BME280;49075;53.988;27.678;2023-05-25T08:41:40;988.8;;;29.1;21.4
62980;BME280;49075;53.988;27.678;2023-05-25T08:46:44;988.8;;;28.4;22.1
62980;BME280;49075;53.988;27.678;2023-05-25T08:51:34;988.8;;;27.6;22.8
62980;BME280;49075;53.988;27.678;2023-05-25T08:56:33;988.8;;;27;23.4
62980;BME280;49075;53.988;27.678;2023-05-25T09:01:57;988.9;;;26.5;23.9
62980;BME280;49075;53.988;27.678;2023-05-25T09:06:33;988.9;;;26.2;24.1
62980;BME280;49075;53.988;27.678;2023-05-25T09:11:59;988.8;;;25.9;24.5
62980;BME280;49075;53.988;27.678;2023-05-25T09:16:45;988.9;;;26;24.4
62980;BME280;49075;53.988;27.678;2023-05-25T09:21:45;988.8;;;26;24.5
62980;BME280;49075;53.988;27.678;2023-05-25T09:26:53;988.8;;;26.1;24.6
62980;BME280;49075;53.988;27.678;2023-05-25T09:31:39;988.8;;;26.9;24
62980;BME280;49075;53.988;27.678;2023-05-25T09:37:09;988.7;;;29;22
62980;BME280;49075;53.988;27.678;2023-05-25T09:41:45;988.7;;;31.1;19.9
62980;BME280;49075;53.988;27.678;2023-05-25T09:46:33;988.7;;;32.8;18.6
62980;BME280;49075;53.988;27.678;2023-05-25T09:51:57;988.7;;;34;17.3
62980;BME280;49075;53.988;27.678;2023-05-25T09:56:45;988.7;;;34.9;16.7
62980;BME280;49075;53.988;27.678;2023-05-25T10:01:46;988.6;;;35.9;15.2
62980;BME280;49075;53.988;27.678;2023-05-25T10:06:33;988.6;;;36.5;15.1
62980;BME280;49075;53.988;27.678;2023-05-25T10:11:53;988.6;;;36.3;14.4
62980;BME280;49075;53.988;27.678;2023-05-25T10:16:58;988.6;;;35.6;15
62980;BME280;49075;53.988;27.678;2023-05-25T10:21:39;988.5;;;36.1;14.7
62980;BME280;49075;53.988;27.678;2023-05-25T10:26:34;988.5;;;36.6;14.5
62980;BME280;49075;53.988;27.678;2023-05-25T10:32:09;988.5;;;35.3;15.2
62980;BME280;49075;53.988;27.678;2023-05-25T10:36:33;988.4;;;33.7;16.2
62980;BME280;49075;53.988;27.678;2023-05-25T10:41:41;988.4;;;33.1;16.4
62980;BME280;49075;53.988;27.678;2023-05-25T10:46:33;988.3;;;33.6;16
62980;BME280;49075;53.988;27.678;2023-05-25T10:51:57;988.3;;;33.2;16.2
62980;BME280;49075;53.988;27.678;2023-05-25T10:57:06;988.3;;;33.5;16
62980;BME280;49075;53.988;27.678;2023-05-25T11:01:48;988.3;;;34.2;15.6
62980;BME280;49075;53.988;27.678;2023-05-25T11:07:06;988.2;;;34.3;15.4
62980;BME280;49075;53.988;27.678;2023-05-25T11:12:17;988.2;;;33.7;15.8
62980;BME280;49075;53.988;27.678;2023-05-25T11:16:33;988.1;;;33.4;15.8
62980;BME280;49075;53.988;27.678;2023-05-25T11:21:45;988.1;;;33.3;16
62980;BME280;49075;53.988;27.678;2023-05-25T11:26:51;988.1;;;32.1;16.5
62980;BME280;49075;53.988;27.678;2023-05-25T11:31:41;988.2;;;31.2;17.2
62980;BME280;49075;53.988;27.678;2023-05-25T11:36:45;988.2;;;30.5;17.8
62980;BME280;49075;53.988;27.678;2023-05-25T11:41:33;988.1;;;29.8;18.6
62980;BME280;49075;53.988;27.678;2023-05-25T11:46:45;988.1;;;28.8;19.5
62980;BME280;49075;53.988;27.678;2023-05-25T11:51:34;988.1;;;28.2;20
62980;BME280;49075;53.988;27.678;2023-05-25T11:56:57;988.1;;;27.7;20.7
62980;BME280;49075;53.988;27.678;2023-05-25T12:01:33;988.1;;;27.2;21.1
62980;BME280;49075;53.988;27.678;2023-05-25T12:06:43;988.1;;;26.7;21.7
62980;BME280;49075;53.988;27.678;2023-05-25T12:11:59;988.1;;;26.5;21.8
62980;BME280;49075;53.988;27.678;2023-05-25T12:16:33;988.1;;;26.3;22
62980;BME280;49075;53.988;27.678;2023-05-25T12:21:55;988.1;;;26.3;22.1
62980;BME280;49075;53.988;27.678;2023-05-25T12:26:33;988.1;;;26.3;22
62980;BME280;49075;53.988;27.678;2023-05-25T12:31:34;988;;;26.3;21.9
62980;BME280;49075;53.988;27.678;2023-05-25T12:36:46;987.9;;;26.5;21.9
62980;BME280;49075;53.988;27.678;2023-05-25T12:41:46;987.9;;;26.9;21.7
62980;BME280;49075;53.988;27.678;2023-05-25T12:46:33;987.8;;;27.2;21.4
62980;BME280;49075;53.988;27.678;2023-05-25T12:51:49;987.8;;;27.1;21.2
62980;BME280;49075;53.988;27.678;2023-05-25T12:56:33;987.8;;;26.9;21.3
62980;BME280;49075;53.988;27.678;2023-05-25T13:01:49;987.8;;;26.7;21.5
62980;BME280;49075;53.988;27.678;2023-05-25T13:06:37;987.8;;;26.7;21.7
62980;BME280;49075;53.988;27.678;2023-05-25T13:11:45;987.8;;;26.6;22.1
62980;BME280;49075;53.988;27.678;2023-05-25T13:16:33;987.7;;;26.5;22
62980;BME280;49075;53.988;27.678;2023-05-25T13:21:45;987.7;;;26.6;21.7
62980;BME280;49075;53.988;27.678;2023-05-25T13:26:45;987.6;;;26.6;21.1
62980;BME280;49075;53.988;27.678;2023-05-25T13:31:45;987.6;;;26.4;20.8
62980;BME280;49075;53.988;27.678;2023-05-25T13:36:33;987.5;;;26.3;21
62980;BME280;49075;53.988;27.678;2023-05-25T13:41:41;987.5;;;26.1;21.1
62980;BME280;49075;53.988;27.678;2023-05-25T13:46:33;987.5;;;26.1;20.5
62980;BME280;49075;53.988;27.678;2023-05-25T13:51:33;987.5;;;26.1;20.4
62980;BME280;49075;53.988;27.678;2023-05-25T13:56:33;987.5;;;26.1;20.9
62980;BME280;49075;53.988;27.678;2023-05-25T14:01:33;987.5;;;26.1;20.6
62980;BME280;49075;53.988;27.678;2023-05-25T14:06:57;987.4;;;26.1;21
62980;BME280;49075;53.988;27.678;2023-05-25T14:11:33;987.4;;;26;21.3
62980;BME280;49075;53.988;27.678;2023-05-25T14:16:39;987.3;;;25.8;21.5
62980;BME280;49075;53.988;27.678;2023-05-25T14:21:51;987.4;;;25.8;21.5
62980;BME280;49075;53.988;27.678;2023-05-25T14:26:33;987.3;;;25.8;21.4
62980;BME280;49075;53.988;27.678;2023-05-25T14:31:51;987.3;;;25.6;21.6
62980;BME280;49075;53.988;27.678;2023-05-25T14:36:59;987.2;;;25.6;21.9
62980;BME280;49075;53.988;27.678;2023-05-25T14:41:45;987.2;;;25.6;21.9
62980;BME280;49075;53.988;27.678;2023-05-25T14:46:39;987.1;;;25.6;21.8
62980;BME280;49075;53.988;27.678;2023-05-25T14:51:45;987.1;;;25.6;21.7
62980;BME280;49075;53.988;27.678;2023-05-25T14:56:45;987.1;;;25.3;22
62980;BME280;49075;53.988;27.678;2023-05-25T15:01:33;987.1;;;25.3;22.3
62980;BME280;49075;53.988;27.678;2023-05-25T15:06:33;987.1;;;25.3;22.3
62980;BME280;49075;53.988;27.678;2023-05-25T15:11:33;987.1;;;25.4;22.4
62980;BME280;49075;53.988;27.678;2023-05-25T15:16:33;987.1;;;24.9;23.3
62980;BME280;49075;53.988;27.678;2023-05-25T15:21:33;987;;;24.5;23.9
62980;BME280;49075;53.988;27.678;2023-05-25T15:26:33;987.1;;;24.3;24.4
62980;BME280;49075;53.988;27.678;2023-05-25T15:31:33;987.1;;;24.4;24.3
62980;BME280;49075;53.988;27.678;2023-05-25T15:36:39;987;;;24.6;24.1
62980;BME280;49075;53.988;27.678;2023-05-25T15:41:33;987;;;24.6;23.9
62980;BME280;49075;53.988;27.678;2023-05-25T15:46:57;987;;;24.5;24.2
62980;BME280;49075;53.988;27.678;2023-05-25T15:51:45;987;;;24.5;24.4
62980;BME280;49075;53.988;27.678;2023-05-25T15:56:34;987;;;24.5;24.2
62980;BME280;49075;53.988;27.678;2023-05-25T16:01:45;987;;;24.6;24.2
62980;BME280;49075;53.988;27.678;2023-05-25T16:06:53;987;;;24.6;24.4
62980;BME280;49075;53.988;27.678;2023-05-25T16:11:39;987.1;;;24.5;24.7
62980;BME280;49075;53.988;27.678;2023-05-25T16:16:33;987.1;;;24.2;25.1
62980;BME280;49075;53.988;27.678;2023-05-25T16:21:33;987;;;23.9;25.5
62980;BME280;49075;53.988;27.678;2023-05-25T16:26:33;987.1;;;23.9;25.7
62980;BME280;49075;53.988;27.678;2023-05-25T16:31:57;987.1;;;23.9;25.8
62980;BME280;49075;53.988;27.678;2023-05-25T16:36:59;987;;;23.9;26.1
62980;BME280;49075;53.988;27.678;2023-05-25T16:41:47;987;;;23.9;26.2
62980;BME280;49075;53.988;27.678;2023-05-25T16:46:39;987.1;;;23.8;26.5
62980;BME280;49075;53.988;27.678;2023-05-25T16:51:33;987.1;;;23.7;26.7
62980;BME280;49075;53.988;27.678;2023-05-25T16:56:45;987.1;;;23.6;27
62980;BME280;49075;53.988;27.678;2023-05-25T17:01:39;987.1;;;23.4;27.5
62980;BME280;49075;53.988;27.678;2023-05-25T17:06:33;987.2;;;23.3;27.9
62980;BME280;49075;53.988;27.678;2023-05-25T17:11:45;987.2;;;23.2;28.1
62980;BME280;49075;53.988;27.678;2023-05-25T17:16:53;987.2;;;23;28.5
62980;BME280;49075;53.988;27.678;2023-05-25T17:21:33;987.2;;;22.9;28.7
62980;BME280;49075;53.988;27.678;2023-05-25T17:26:51;987.2;;;22.8;29.2
62980;BME280;49075;53.988;27.678;2023-05-25T17:31:39;987.3;;;22.6;29.9
62980;BME280;49075;53.988;27.678;2023-05-25T17:36:45;987.4;;;22.5;30.2
62980;BME280;49075;53.988;27.678;2023-05-25T17:41:46;987.5;;;22.4;30.7
62980;BME280;49075;53.988;27.678;2023-05-25T17:46:33;987.5;;;22.2;31.4
62980;BME280;49075;53.988;27.678;2023-05-25T17:51:51;987.5;;;22.1;32.1
62980;BME280;49075;53.988;27.678;2023-05-25T17:56:45;987.6;;;21.9;32.4
62980;BME280;49075;53.988;27.678;2023-05-25T18:01:45;987.6;;;21.7;33.2
62980;BME280;49075;53.988;27.678;2023-05-25T18:06:51;987.7;;;21.6;33.5
62980;BME280;49075;53.988;27.678;2023-05-25T18:11:39;987.7;;;21.5;33.9
62980;BME280;49075;53.988;27.678;2023-05-25T18:16:43;987.7;;;21.3;34.4
62980;BME280;49075;53.988;27.678;2023-05-25T18:21:51;987.7;;;21.2;34.5
62980;BME280;49075;53.988;27.678;2023-05-25T18:26:33;987.7;;;21;35.3
62980;BME280;49075;53.988;27.678;2023-05-25T18:31:33;987.7;;;20.9;35.3
62980;BME280;49075;53.988;27.678;2023-05-25T18:36:53;987.7;;;20.8;35.8
62980;BME280;49075;53.988;27.678;2023-05-25T18:41:45;987.8;;;20.6;35.9
62980;BME280;49075;53.988;27.678;2023-05-25T18:46:33;987.8;;;20.4;36.5
62980;BME280;49075;53.988;27.678;2023-05-25T18:52:11;987.8;;;20.3;36.6
62980;BME280;49075;53.988;27.678;2023-05-25T18:56:39;987.9;;;20.2;37.2
62980;BME280;49075;53.988;27.678;2023-05-25T19:01:33;987.9;;;20.1;37.3
62980;BME280;49075;53.988;27.678;2023-05-25T19:06:33;988;;;19.9;37.9
62980;BME280;49075;53.988;27.678;2023-05-25T19:11:45;988;;;19.9;37.8
62980;BME280;49075;53.988;27.678;2023-05-25T19:16:33;988;;;19.8;38.2
62980;BME280;49075;53.988;27.678;2023-05-25T19:21:43;988;;;19.8;38.6
62980;BME280;49075;53.988;27.678;2023-05-25T19:26:57;988;;;19.6;38.8
62980;BME280;49075;53.988;27.678;2023-05-25T19:31:45;988;;;19.5;39.1
62980;BME280;49075;53.988;27.678;2023-05-25T19:36:45;988;;;19.2;39.4
62980;BME280;49075;53.988;27.678;2023-05-25T19:41:59;988;;;19.1;40
62980;BME280;49075;53.988;27.678;2023-05-25T19:46:39;988;;;19;40.3
62980;BME280;49075;53.988;27.678;2023-05-25T19:51:45;988;;;18.9;40.8
62980;BME280;49075;53.988;27.678;2023-05-25T19:56:34;988;;;18.8;40.9
62980;BME280;49075;53.988;27.678;2023-05-25T20:01:51;988.1;;;18.6;41.4
62980;BME280;49075;53.988;27.678;2023-05-25T20:06:33;988.1;;;18.5;41.6
62980;BME280;49075;53.988;27.678;2023-05-25T20:11:56;988.1;;;18.4;42.2
62980;BME280;49075;53.988;27.678;2023-05-25T20:16:45;988.1;;;18.3;42.4
62980;BME280;49075;53.988;27.678;2023-05-25T20:22:05;988.1;;;18.1;42.8
62980;BME280;49075;53.988;27.678;2023-05-25T20:26:51;988.1;;;17.8;43.3
62980;BME280;49075;53.988;27.678;2023-05-25T20:31:48;988.2;;;17.7;44
62980;BME280;49075;53.988;27.678;2023-05-25T20:36:45;988.1;;;17.6;44.3
62980;BME280;49075;53.988;27.678;2023-05-25T20:41:34;988.1;;;17.6;44.3
62980;BME280;49075;53.988;27.678;2023-05-25T20:46:33;988.2;;;17.5;44.2
62980;BME280;49075;53.988;27.678;2023-05-25T20:51:33;988.2;;;17.5;44.5
62980;BME280;49075;53.988;27.678;2023-05-25T20:56:47;988.1;;;17.4;44.7
62980;BME280;49075;53.988;27.678;2023-05-25T21:01:45;988.1;;;17.2;44.8
62980;BME280;49075;53.988;27.678;2023-05-25T21:06:45;988.1;;;17.1;45.4
62980;BME280;49075;53.988;27.678;2023-05-25T21:11:53;988.1;;;17.1;45.3
62980;BME280;49075;53.988;27.678;2023-05-25T21:16:42;988.1;;;16.9;45.8
62980;BME280;49075;53.988;27.678;2023-05-25T21:21:33;988.1;;;16.8;46
62980;BME280;49075;53.988;27.678;2023-05-25T21:26:54;988;;;16.8;46.5
62980;BME280;49075;53.988;27.678;2023-05-25T21:31:45;988;;;16.8;46.3
62980;BME280;49075;53.988;27.678;2023-05-25T21:36:46;988;;;16.9;46.5
62980;BME280;49075;53.988;27.678;2023-05-25T21:41:48;988;;;16.9;46.3
62980;BME280;49075;53.988;27.678;2023-05-25T21:46:44;988.1;;;16.9;46.7
62980;BME280;49075;53.988;27.678;2023-05-25T21:51:52;988.1;;;16.9;46.5
62980;BME280;49075;53.988;27.678;2023-05-25T21:56:46;988;;;16.7;47.1
62980;BME280;49075;53.988;27.678;2023-05-25T22:01:45;988.1;;;16.6;47
62980;BME280;49075;53.988;27.678;2023-05-25T22:06:44;988;;;16.5;47.8
62980;BME280;49075;53.988;27.678;2023-05-25T22:11:32;988;;;16.4;47.7
62980;BME280;49075;53.988;27.678;2023-05-25T22:16:32;988;;;16.3;48.2
62980;BME280;49075;53.988;27.678;2023-05-25T22:21:58;988;;;16.1;48.1
62980;BME280;49075;53.988;27.678;2023-05-25T22:26:32;988;;;16.1;48.7
62980;BME280;49075;53.988;27.678;2023-05-25T22:31:32;988;;;16.1;48.5
62980;BME280;49075;53.988;27.678;2023-05-25T22:36:44;988;;;16.1;49.1
62980;BME280;49075;53.988;27.678;2023-05-25T22:41:56;988;;;16;48.8
62980;BME280;49075;53.988;27.678;2023-05-25T22:46:32;988;;;15.9;49.3
62980;BME280;49075;53.988;27.678;2023-05-25T22:51:32;988;;;15.8;49.5
62980;BME280;49075;53.988;27.678;2023-05-25T22:56:44;988.1;;;15.6;50.3
62980;BME280;49075;53.988;27.678;2023-05-25T23:01:44;988.1;;;15.6;50.1
62980;BME280;49075;53.988;27.678;2023-05-25T23:06:38;988.1;;;15.5;50.6
62980;BME280;49075;53.988;27.678;2023-05-25T23:11:32;988.1;;;15.4;50.5
62980;BME280;49075;53.988;27.678;2023-05-25T23:16:44;988.1;;;15.2;51
62980;BME280;49075;53.988;27.678;2023-05-25T23:21:38;988.1;;;15.2;51
62980;BME280;49075;53.988;27.678;2023-05-25T23:26:56;988.1;;;15.2;51.2
62980;BME280;49075;53.988;27.678;2023-05-25T23:31:32;988.1;;;15.2;51.2
62980;BME280;49075;53.988;27.678;2023-05-25T23:36:44;988.1;;;15.1;51.4
62980;BME280;49075;53.988;27.678;2023-05-25T23:41:32;988.1;;;15;51.6
62980;BME280;49075;53.988;27.678;2023-05-25T23:46:52;988.1;;;15;51.8
62980;BME280;49075;53.988;27.678;2023-05-25T23:51:56;988.1;;;14.9;52
62980;BME280;49075;53.988;27.678;2023-05-25T23:56:46;988.1;;;14.8;52
